Time;durP1;ratioP1;P1;durP2;ratioP2;P2;SDS_P1;SDS_P2;PMS_P1;PMS_P2;Temp;Humidity;BMP_temperature;BMP_pressure;BME280_temperature;BME280_humidity;BME280_pressure;Samples;Min_cycle;Max_cycle;Signal;HPM_P1;HPM_P2
2022/07/30 00:02:17;;;;;;;;;3.00;2.33;;;;;20.22;67.45;100834.63;5020727;28;45453;-73
2022/07/30 00:04:43;;;;;;;;;3.00;2.00;;;;;20.29;67.31;100830.16;5020323;28;45505;-73
2022/07/30 00:07:09;;;;;;;;;2.33;2.33;;;;;20.35;66.93;100830.16;5018652;28;45415;-73
2022/07/30 00:09:34;;;;;;;;;1.33;1.33;;;;;20.39;66.68;100826.59;5019509;28;45994;-74
2022/07/30 00:12:00;;;;;;;;;1.00;1.00;;;;;20.11;67.15;100780.72;5021363;28;45626;-74
2022/07/30 00:14:26;;;;;;;;;3.00;3.00;;;;;20.29;67.64;100827.50;5021204;28;45482;-73
2022/07/30 00:16:52;;;;;;;;;2.00;2.00;;;;;20.31;67.77;100822.19;5040788;28;45576;-74
2022/07/30 00:19:18;;;;;;;;;2.33;2.00;;;;;20.39;66.96;100825.69;5030204;28;45499;-73
2022/07/30 00:21:44;;;;;;;;;1.00;1.00;;;;;20.39;67.11;100817.72;5027869;28;45926;-73
2022/07/30 00:24:10;;;;;;;;;1.67;1.67;;;;;20.50;67.44;100817.66;5030681;28;45493;-73
2022/07/30 00:26:36;;;;;;;;;2.00;2.00;;;;;20.24;67.25;100770.94;5028759;28;45444;-73
2022/07/30 00:29:02;;;;;;;;;3.00;2.00;;;;;20.41;66.91;100790.31;5019207;28;46094;-74
2022/07/30 00:31:28;;;;;;;;;2.00;2.00;;;;;20.48;66.89;100793.78;5034602;28;45477;-74
2022/07/30 00:33:53;;;;;;;;;3.00;2.00;;;;;20.63;66.96;100814.03;5021552;28;45375;-74
2022/07/30 00:36:19;;;;;;;;;1.67;1.67;;;;;20.65;66.46;100813.16;5018978;28;45488;-74
2022/07/30 00:38:44;;;;;;;;;3.00;2.00;;;;;20.48;67.06;100798.22;5018985;28;45933;-74
2022/07/30 00:41:10;;;;;;;;;4.00;4.00;;;;;20.32;67.65;100782.38;5019101;28;45811;-74
2022/07/30 00:43:36;;;;;;;;;2.00;2.00;;;;;20.17;68.28;100774.53;5017040;28;45353;-73
2022/07/30 00:46:01;;;;;;;;;3.00;3.00;;;;;20.36;67.74;100802.69;5018954;28;45487;-74
2022/07/30 00:48:27;;;;;;;;;2.33;2.33;;;;;20.52;67.62;100813.22;5019645;28;47102;-73
2022/07/30 00:50:53;;;;;;;;;3.00;2.00;;;;;20.58;67.48;100816.72;5020932;28;46204;-73
2022/07/30 00:53:19;;;;;;;;;2.00;2.00;;;;;20.44;66.89;100777.00;5020464;28;45449;-74
2022/07/30 00:55:44;;;;;;;;;3.33;2.33;;;;;20.63;66.87;100804.34;5018559;28;45571;-73
2022/07/30 00:58:10;;;;;;;;;2.00;1.00;;;;;20.63;67.00;100799.03;5018198;28;45544;-73
2022/07/30 01:00:35;;;;;;;;;2.00;2.00;;;;;20.67;67.45;100802.50;5021771;28;45404;-73
2022/07/30 01:03:01;;;;;;;;;3.33;2.33;;;;;20.66;66.81;100796.31;5023034;28;45517;-73
2022/07/30 01:05:30;;;;;;;;;4.00;2.33;;;;;20.75;66.94;100795.41;5018082;28;45613;-73
2022/07/30 01:07:55;;;;;;;;;2.00;2.00;;;;;20.79;66.87;100799.78;5021062;28;46312;-72
2022/07/30 01:10:21;;;;;;;;;3.00;2.00;;;;;20.62;67.44;100764.53;5019201;28;45457;-75
2022/07/30 01:12:47;;;;;;;;;3.00;1.33;;;;;20.77;66.67;100798.91;5026576;28;45461;-75
2022/07/30 01:15:13;;;;;;;;;2.67;2.67;;;;;20.59;67.15;100770.75;5034216;28;45457;-75
2022/07/30 01:17:39;;;;;;;;;2.67;2.67;;;;;20.64;66.67;100773.34;5029165;28;45470;-74
2022/07/30 01:20:13;;;;;;;;;2.33;2.00;;;;;20.77;67.06;100798.91;5032434;28;45362;-75
2022/07/30 01:22:56;;;;;;;;;2.00;1.00;;;;;20.75;67.48;100800.72;5055025;28;45406;-73
2022/07/30 01:25:31;;;;;;;;;1.00;1.00;;;;;20.72;67.21;100799.84;5022939;28;45478;-73
2022/07/30 01:28:06;;;;;;;;;2.00;2.00;;;;;20.65;67.19;100789.28;5028354;28;46284;-73
2022/07/30 01:30:37;;;;;;;;;2.33;2.33;;;;;20.69;67.57;100799.84;5027173;28;45576;-73
2022/07/30 01:33:04;;;;;;;;;2.33;2.33;;;;;20.69;68.23;100802.50;5022374;28;45450;-73
2022/07/30 01:35:33;;;;;;;;;1.67;1.67;;;;;20.43;68.23;100775.25;5031126;28;45295;-76
2022/07/30 01:38:00;;;;;;;;;1.00;1.00;;;;;20.42;68.37;100780.56;5026180;28;46303;-74
2022/07/30 01:40:27;;;;;;;;;2.67;2.00;;;;;20.39;68.87;100791.19;5025592;28;45374;-74
2022/07/30 01:42:57;;;;;;;;;4.00;4.00;;;;;20.26;69.22;100777.13;5022533;28;45616;-74
2022/07/30 01:45:25;;;;;;;;;2.67;2.00;;;;;20.33;69.65;100784.13;5023257;28;45826;-73
2022/07/30 01:47:58;;;;;;;;;0.00;0.00;;;;;20.29;69.37;100782.41;5022229;28;47085;-74
2022/07/30 01:50:24;;;;;;;;;2.33;2.33;;;;;20.12;69.85;100768.38;5030872;28;45505;-74
2022/07/30 01:52:52;;;;;;;;;5.00;3.00;;;;;20.31;70.02;100801.84;5031827;28;45419;-73
2022/07/30 01:55:34;;;;;;;;;3.00;3.00;;;;;20.20;69.53;100779.81;5032560;28;45429;-74
2022/07/30 01:58:02;;;;;;;;;2.00;2.00;;;;;20.23;68.97;100761.22;5042977;28;46186;-73
2022/07/30 02:00:32;;;;;;;;;1.67;1.67;;;;;20.33;68.76;100760.25;5025660;28;45511;-74
2022/07/30 02:02:58;;;;;;;;;2.00;2.00;;;;;20.51;68.12;100771.63;5025346;28;45477;-74
2022/07/30 02:05:23;;;;;;;;;2.00;2.00;;;;;20.59;68.34;100780.47;5031077;28;45509;-73
2022/07/30 02:08:01;;;;;;;;;2.00;2.00;;;;;20.65;68.22;100791.03;5019865;28;45678;-73
2022/07/30 02:10:40;;;;;;;;;1.33;1.33;;;;;20.55;67.97;100773.38;5021672;28;45522;-74
2022/07/30 02:13:07;;;;;;;;;2.67;2.00;;;;;20.65;67.87;100786.63;5021664;28;45476;-73
2022/07/30 02:16:12;;;;;;;;;2.00;1.00;;;;;20.77;67.94;100793.63;5026288;28;45390;-73
2022/07/30 02:18:49;;;;;;;;;2.00;2.00;;;;;20.81;67.88;100792.69;5028220;28;45528;-74
2022/07/30 02:21:18;;;;;;;;;1.67;1.67;;;;;20.83;67.81;100790.91;5028645;28;46166;-74
2022/07/30 02:23:47;;;;;;;;;1.67;1.67;;;;;20.82;68.74;100798.88;5029537;28;45460;-73
2022/07/30 02:26:17;;;;;;;;;3.00;2.00;;;;;20.80;67.98;100793.56;5030357;28;45511;-74
2022/07/30 02:28:46;;;;;;;;;1.00;1.00;;;;;20.73;68.04;100770.63;5020978;28;45540;-73
2022/07/30 02:31:16;;;;;;;;;2.00;2.00;;;;;20.88;68.15;100789.97;5020641;28;45216;-74
2022/07/30 02:33:44;;;;;;;;;2.33;2.00;;;;;20.84;67.58;100782.03;5029188;28;45520;-74
2022/07/30 02:36:10;;;;;;;;;2.00;2.00;;;;;20.75;67.67;100771.50;5063124;28;45998;-73
2022/07/30 02:38:40;;;;;;;;;2.00;1.00;;;;;20.90;68.35;100791.72;5025577;28;46292;-74
2022/07/30 02:41:08;;;;;;;;;2.00;2.00;;;;;20.80;67.23;100772.31;5023597;28;45553;-74
2022/07/30 02:43:36;;;;;;;;;2.00;2.00;;;;;20.90;67.86;100785.53;5027677;28;45527;-73
2022/07/30 02:46:03;;;;;;;;;1.00;1.00;;;;;20.67;68.52;100752.06;5026320;28;45212;-74
2022/07/30 02:48:30;;;;;;;;;2.00;1.00;;;;;20.78;68.73;100770.59;5024489;28;45394;-74
2022/07/30 02:50:59;;;;;;;;;2.00;2.00;;;;;20.85;68.49;100783.81;5019696;28;45405;-73
2022/07/30 02:53:26;;;;;;;;;2.00;1.67;;;;;20.87;68.72;100786.44;5017015;28;45597;-73
2022/07/30 02:55:55;;;;;;;;;1.67;1.67;;;;;20.80;68.95;100780.28;5016438;28;45479;-73
2022/07/30 02:58:23;;;;;;;;;1.00;1.00;;;;;20.75;69.72;100784.78;5017496;28;46307;-73
2022/07/30 03:00:52;;;;;;;;;1.00;1.00;;;;;20.48;70.31;100759.28;5051758;28;45524;-74
2022/07/30 03:03:19;;;;;;;;;1.00;1.00;;;;;20.67;69.77;100789.25;5021543;28;45282;-74
2022/07/30 03:05:48;;;;;;;;;2.00;2.00;;;;;20.78;69.16;100782.09;5026491;28;45849;-74
2022/07/30 03:08:15;;;;;;;;;1.67;1.00;;;;;20.74;69.13;100764.41;5025964;28;45457;-74
2022/07/30 03:10:43;;;;;;;;;1.00;1.00;;;;;20.89;69.34;100783.75;5028222;28;45508;-74
2022/07/30 03:13:11;;;;;;;;;1.67;1.67;;;;;20.90;69.22;100780.22;5041497;28;45453;-74
2022/07/30 03:15:43;;;;;;;;;2.00;1.67;;;;;20.90;68.91;100783.75;5019537;28;45416;-74
2022/07/30 03:18:12;;;;;;;;;1.00;1.00;;;;;20.97;68.72;100792.53;5037286;28;45240;-74
2022/07/30 03:20:39;;;;;;;;;3.00;2.00;;;;;21.00;68.66;100782.78;5016948;28;45457;-74
2022/07/30 03:23:07;;;;;;;;;2.67;2.00;;;;;20.94;68.49;100763.38;5017980;28;45534;-73
2022/07/30 03:25:34;;;;;;;;;1.67;1.67;;;;;20.97;69.14;100772.19;5017913;28;45462;-74
2022/07/30 03:28:02;;;;;;;;;2.00;2.00;;;;;20.65;70.05;100749.47;5016056;28;45494;-74
2022/07/30 03:30:32;;;;;;;;;2.67;2.00;;;;;20.89;69.24;100768.72;5030313;28;45580;-73
2022/07/30 03:32:58;;;;;;;;;1.00;1.00;;;;;20.88;68.97;100761.63;5035758;28;45430;-73
2022/07/30 03:35:25;;;;;;;;;2.00;1.33;;;;;20.91;68.68;100750.09;5034432;28;45557;-73
2022/07/30 03:37:52;;;;;;;;;1.00;1.00;;;;;21.06;69.25;100776.53;5033926;28;46980;-74
2022/07/30 03:40:19;;;;;;;;;3.00;3.00;;;;;20.78;69.50;100744.91;5035272;28;45706;-73
2022/07/30 03:42:45;;;;;;;;;1.67;1.67;;;;;20.82;69.87;100775.84;5035623;28;45396;-73
2022/07/30 03:45:14;;;;;;;;;2.00;2.00;;;;;20.59;70.80;100754.81;5035494;28;45532;-74
2022/07/30 03:47:41;;;;;;;;;2.00;1.00;;;;;20.53;70.32;100743.31;5028571;28;45469;-74
2022/07/30 03:50:08;;;;;;;;;1.33;1.00;;;;;20.68;69.66;100753.84;5021626;28;45494;-74
2022/07/30 03:52:37;;;;;;;;;1.00;1.00;;;;;20.83;69.47;100772.31;5032187;28;45927;-74
2022/07/30 03:55:04;;;;;;;;;1.00;1.00;;;;;20.82;70.43;100767.88;5034852;28;45504;-74
2022/07/30 03:57:30;;;;;;;;;2.33;2.00;;;;;20.61;70.01;100737.09;5033672;28;45617;-74
2022/07/30 03:59:55;;;;;;;;;1.00;1.00;;;;;20.68;70.16;100758.28;5048827;28;45504;-74
2022/07/30 04:02:21;;;;;;;;;3.00;2.00;;;;;20.83;69.71;100767.00;5035202;28;45399;-74
2022/07/30 04:04:46;;;;;;;;;1.00;1.00;;;;;20.69;69.85;100733.50;5035956;28;45468;-73
2022/07/30 04:07:12;;;;;;;;;2.00;2.00;;;;;20.86;69.63;100764.31;5035861;28;45865;-74
2022/07/30 04:09:38;;;;;;;;;1.67;1.67;;;;;20.89;70.21;100770.47;5036046;28;45370;-75
2022/07/30 04:12:04;;;;;;;;;1.00;1.00;;;;;20.76;70.01;100753.78;5036161;28;45153;-74
2022/07/30 04:14:48;;;;;;;;;1.33;1.33;;;;;20.90;70.02;100774.91;5029636;28;45441;-74
2022/07/30 04:17:35;;;;;;;;;2.00;2.00;;;;;20.91;70.25;100776.66;5050857;28;46934;-75
2022/07/30 04:20:16;;;;;;;;;2.00;2.00;;;;;20.52;69.93;100704.41;5034625;28;45526;-74
2022/07/30 04:22:42;;;;;;;;;1.67;1.00;;;;;20.83;69.76;100758.13;5033867;28;45428;-75
2022/07/30 04:25:08;;;;;;;;;2.33;2.00;;;;;20.70;69.46;100730.81;5036257;28;45761;-74
2022/07/30 04:27:36;;;;;;;;;1.00;1.00;;;;;20.99;69.71;100785.44;5035934;28;45488;-74
2022/07/30 04:30:03;;;;;;;;;2.00;2.00;;;;;20.99;69.80;100774.81;5034865;28;45541;-74
2022/07/30 04:32:30;;;;;;;;;2.00;2.00;;;;;20.86;70.34;100797.94;5036120;28;45496;-74
2022/07/30 04:34:55;;;;;;;;;2.00;2.00;;;;;20.78;70.40;100786.50;5027750;28;45780;-74
2022/07/30 04:37:25;;;;;;;;;1.33;1.33;;;;;20.60;71.07;100782.22;5016124;28;46089;-75
2022/07/30 04:39:56;;;;;;;;;2.00;2.00;;;;;20.55;71.18;100794.63;5032388;28;45425;-74
2022/07/30 04:42:23;;;;;;;;;3.00;2.00;;;;;20.52;71.38;100792.88;5020234;28;45299;-74
2022/07/30 04:44:49;;;;;;;;;2.67;2.00;;;;;20.53;70.92;100793.75;5027212;28;45813;-75
2022/07/30 04:47:16;;;;;;;;;2.00;2.00;;;;;20.53;71.46;100801.69;5029002;28;46139;-74
2022/07/30 04:49:42;;;;;;;;;1.00;1.00;;;;;20.51;71.56;100806.13;5019798;28;45365;-74
2022/07/30 04:52:11;;;;;;;;;2.00;2.00;;;;;20.53;71.42;100801.69;5019721;28;45401;-74
2022/07/30 04:54:42;;;;;;;;;1.00;1.00;;;;;20.46;70.86;100779.66;5019927;28;45442;-74
2022/07/30 04:57:10;;;;;;;;;2.00;2.00;;;;;20.46;71.62;100788.47;5034924;28;45644;-74
2022/07/30 04:59:36;;;;;;;;;3.00;2.67;;;;;20.50;71.90;100807.94;5019599;28;45391;-75
2022/07/30 05:02:04;;;;;;;;;1.67;1.67;;;;;20.26;71.72;100777.13;5039515;28;45419;-75
2022/07/30 05:04:33;;;;;;;;;1.67;1.67;;;;;20.29;72.19;100776.22;5033393;28;45748;-75
2022/07/30 05:07:00;;;;;;;;;3.00;2.00;;;;;20.45;72.16;100807.97;5020173;28;45230;-75
2022/07/30 05:09:27;;;;;;;;;1.33;1.33;;;;;20.41;71.92;100803.56;5018915;28;45502;-74
2022/07/30 05:11:54;;;;;;;;;2.67;2.00;;;;;20.39;72.11;100812.41;5029616;28;45496;-74
2022/07/30 05:14:20;;;;;;;;;3.00;3.00;;;;;20.34;72.45;100807.13;5038768;28;45539;-74
2022/07/30 05:16:46;;;;;;;;;2.00;2.00;;;;;20.27;72.25;100802.75;5019496;28;46254;-75
2022/07/30 05:19:12;;;;;;;;;2.00;2.00;;;;;20.28;72.84;100812.47;5025051;28;45478;-75
2022/07/30 05:21:37;;;;;;;;;4.00;3.00;;;;;20.31;72.12;100807.13;5028270;28;45539;-74
2022/07/30 05:24:03;;;;;;;;;1.00;1.00;;;;;20.48;72.07;100809.72;5019406;28;45354;-74
2022/07/30 05:26:29;;;;;;;;;2.67;2.00;;;;;20.45;72.35;100822.97;5034509;28;46060;-75
2022/07/30 05:28:54;;;;;;;;;2.00;2.00;;;;;20.51;71.89;100820.28;5024785;28;45613;-75
2022/07/30 05:31:20;;;;;;;;;2.00;2.00;;;;;20.56;72.04;100813.19;5028382;28;45555;-75
2022/07/30 05:33:46;;;;;;;;;2.00;1.67;;;;;20.60;72.11;100819.41;5032941;28;45359;-75
2022/07/30 05:36:11;;;;;;;;;1.00;1.00;;;;;20.70;71.20;100815.78;5033675;28;45362;-75
2022/07/30 05:38:37;;;;;;;;;2.00;1.67;;;;;20.34;71.46;100740.81;5024250;28;45449;-74
2022/07/30 05:41:02;;;;;;;;;1.00;1.00;;;;;20.84;70.71;100819.19;5027928;28;45425;-74
2022/07/30 05:43:28;;;;;;;;;1.33;1.33;;;;;20.34;70.25;100721.38;5032175;28;45559;-74
2022/07/30 05:45:53;;;;;;;;;1.67;1.67;;;;;20.95;70.19;100815.56;5026517;28;45416;-74
2022/07/30 05:48:19;;;;;;;;;2.00;2.00;;;;;21.05;70.45;100817.28;5033049;28;45523;-75
2022/07/30 05:50:44;;;;;;;;;2.33;2.33;;;;;21.09;70.64;100816.34;5021292;28;45375;-74
2022/07/30 05:53:10;;;;;;;;;2.00;2.00;;;;;20.94;69.92;100779.31;5038370;28;45324;-74
2022/07/30 05:55:36;;;;;;;;;1.33;1.33;;;;;21.26;69.87;100816.19;5026498;28;45617;-74
2022/07/30 05:58:02;;;;;;;;;3.00;2.67;;;;;21.18;70.17;100802.09;5017934;28;45406;-74
2022/07/30 06:00:27;;;;;;;;;1.00;1.00;;;;;21.38;69.63;100826.69;5019937;28;46312;-74
2022/07/30 06:02:53;;;;;;;;;2.00;2.00;;;;;21.46;69.60;100826.63;5031838;28;45390;-75
2022/07/30 06:05:18;;;;;;;;;2.67;2.67;;;;;21.54;69.57;100818.59;5018033;28;46005;-74
2022/07/30 06:07:44;;;;;;;;;2.00;2.00;;;;;21.61;69.02;100820.28;5035710;28;45457;-74
2022/07/30 06:10:10;;;;;;;;;1.00;1.00;;;;;21.75;68.97;100820.13;5034423;28;45579;-74
2022/07/30 06:12:35;;;;;;;;;2.00;1.33;;;;;21.83;68.85;100820.91;5034084;28;45587;-74
2022/07/30 06:15:01;;;;;;;;;2.00;1.67;;;;;21.86;68.37;100802.25;5036624;28;45598;-74
2022/07/30 06:17:26;;;;;;;;;2.00;2.00;;;;;21.77;68.15;100758.06;5036932;28;45683;-75
2022/07/30 06:19:53;;;;;;;;;1.33;1.33;;;;;22.29;66.96;100831.00;5035426;28;45438;-76
2022/07/30 06:22:19;;;;;;;;;2.00;1.33;;;;;22.15;67.33;100771.75;5032500;28;47477;-73
2022/07/30 06:24:44;;;;;;;;;2.00;2.00;;;;;22.51;66.23;100817.38;5030427;28;45487;-74
2022/07/30 06:27:10;;;;;;;;;5.33;4.00;;;;;22.48;65.80;100817.41;5037080;28;45489;-73
2022/07/30 06:29:36;;;;;;;;;3.00;2.00;;;;;22.40;66.51;100823.75;5035305;28;45444;-73
2022/07/30 06:32:02;;;;;;;;;2.00;2.00;;;;;22.47;66.10;100826.31;5035880;28;45765;-74
2022/07/30 06:34:28;;;;;;;;;3.00;2.00;;;;;22.48;66.33;100828.94;5035076;28;45506;-75
2022/07/30 06:36:53;;;;;;;;;3.33;3.00;;;;;22.49;65.90;100829.84;5036559;28;45364;-74
2022/07/30 06:39:19;;;;;;;;;3.00;3.00;;;;;22.56;65.60;100828.81;5033821;28;45440;-75
2022/07/30 06:41:45;;;;;;;;;2.00;2.00;;;;;22.03;65.23;100715.13;5036921;28;45489;-73
2022/07/30 06:44:11;;;;;;;;;3.00;2.00;;;;;22.90;64.87;100829.19;5034775;28;46114;-75
2022/07/30 06:46:36;;;;;;;;;2.00;2.00;;;;;23.10;63.25;100838.66;5035203;28;45507;-74
2022/07/30 06:49:02;;;;;;;;;2.00;2.00;;;;;23.07;62.71;100802.28;5034431;28;45607;-74
2022/07/30 06:51:28;;;;;;;;;1.67;1.67;;;;;23.25;62.44;100818.84;5031841;28;45395;-75
2022/07/30 06:53:53;;;;;;;;;3.00;3.00;;;;;23.21;61.11;100797.56;5033914;28;46140;-75
2022/07/30 06:56:19;;;;;;;;;6.00;6.00;;;;;22.98;61.53;100754.47;5033119;28;45346;-75
2022/07/30 06:58:45;;;;;;;;;6.67;6.00;;;;;23.56;61.90;100836.03;5036081;28;45606;-75
2022/07/30 07:01:11;;;;;;;;;5.00;5.00;;;;;23.74;60.67;100831.25;5035672;28;45368;-75
2022/07/30 07:03:36;;;;;;;;;3.00;3.00;;;;;23.90;59.76;100842.53;5034340;28;45404;-75
2022/07/30 07:06:04;;;;;;;;;4.67;4.67;;;;;24.13;59.62;100845.63;5031604;28;45394;-75
2022/07/30 07:08:30;;;;;;;;;2.00;1.33;;;;;24.48;58.12;100843.94;5035633;28;45844;-75
2022/07/30 07:10:56;;;;;;;;;3.00;2.00;;;;;24.94;57.29;100826.84;5034496;28;45527;-75
2022/07/30 07:13:22;;;;;;;;;1.67;1.67;;;;;26.43;52.40;100807.56;5034002;28;45797;-75
2022/07/30 07:15:47;;;;;;;;;3.00;2.67;;;;;26.49;52.79;100813.59;5032574;28;45488;-76
2022/07/30 07:18:14;;;;;;;;;3.00;3.00;;;;;26.84;52.33;100840.19;5021247;28;45441;-75
2022/07/30 07:20:42;;;;;;;;;3.00;2.33;;;;;27.38;51.22;100840.16;5017305;28;45407;-75
2022/07/30 07:23:07;;;;;;;;;1.00;1.00;;;;;27.70;50.64;100839.94;5024801;28;46306;-75
2022/07/30 07:25:33;;;;;;;;;2.00;2.00;;;;;28.30;49.66;100852.00;5035180;28;45417;-75
2022/07/30 07:27:59;;;;;;;;;3.00;3.00;;;;;28.89;47.97;100839.81;5035078;28;45289;-76
2022/07/30 07:30:24;;;;;;;;;1.67;1.67;;;;;31.98;42.50;100798.97;5033216;28;45540;-75
2022/07/30 07:32:50;;;;;;;;;2.00;2.00;;;;;32.04;41.97;100836.50;5033844;28;45581;-76
2022/07/30 07:35:16;;;;;;;;;2.33;2.00;;;;;31.47;42.30;100845.78;5026588;28;45503;-76
2022/07/30 07:37:41;;;;;;;;;2.00;2.00;;;;;31.60;42.17;100834.38;5027556;28;45482;-74
2022/07/30 07:40:07;;;;;;;;;2.00;2.00;;;;;31.50;43.43;100847.47;5016745;28;45408;-74
2022/07/30 07:42:33;;;;;;;;;1.00;1.00;;;;;32.10;40.78;100844.28;5016538;28;45386;-74
2022/07/30 07:44:58;;;;;;;;;2.00;2.00;;;;;32.16;41.22;100852.03;5022344;28;45341;-74
2022/07/30 07:47:24;;;;;;;;;3.00;3.00;;;;;33.14;38.27;100834.72;5032439;28;45961;-74
2022/07/30 07:49:53;;;;;;;;;0.00;0.00;;;;;32.96;39.21;100846.63;5035073;28;45694;-74
2022/07/30 07:52:18;;;;;;;;;1.67;1.67;;;;;32.04;41.05;100828.41;5033759;28;45468;-74
2022/07/30 07:54:44;;;;;;;;;1.67;1.67;;;;;31.27;41.81;100784.72;5033438;28;45785;-75
2022/07/30 07:57:10;;;;;;;;;2.00;1.00;;;;;31.43;41.55;100857.66;5033792;28;45584;-75
2022/07/30 07:59:36;;;;;;;;;2.00;2.00;;;;;30.96;42.58;100842.13;5019517;28;45899;-75
2022/07/30 08:02:02;;;;;;;;;2.00;2.00;;;;;31.07;42.12;100866.72;5020110;28;46080;-75
2022/07/30 08:04:27;;;;;;;;;2.33;2.33;;;;;31.31;41.94;100853.78;5027824;28;45332;-75
2022/07/30 08:06:53;;;;;;;;;1.33;1.00;;;;;32.43;40.36;100860.44;5027921;28;45442;-75
2022/07/30 08:09:21;;;;;;;;;1.33;1.33;;;;;32.03;40.26;100846.44;5020572;28;45212;-75
2022/07/30 08:12:10;;;;;;;;;4.00;3.00;;;;;31.82;41.04;100861.94;5016453;28;45450;-76
2022/07/30 08:14:35;;;;;;;;;2.33;2.33;;;;;31.63;41.62;100862.06;5034005;28;45446;-75
2022/07/30 08:17:01;;;;;;;;;1.67;1.67;;;;;31.50;41.30;100853.75;5036701;28;45484;-75
2022/07/30 08:19:26;;;;;;;;;1.67;1.67;;;;;31.48;41.05;100844.00;5032832;28;45466;-75
2022/07/30 08:21:52;;;;;;;;;1.00;1.00;;;;;32.23;40.16;100848.03;5036817;28;46674;-75
2022/07/30 08:24:17;;;;;;;;;1.33;0.67;;;;;35.30;36.50;100857.13;5038681;28;45534;-75
2022/07/30 08:26:43;;;;;;;;;0.67;0.67;;;;;35.18;34.65;100849.81;5037304;28;45509;-75
2022/07/30 08:29:08;;;;;;;;;1.67;1.67;;;;;34.11;36.13;100855.00;5034850;28;45511;-76
2022/07/30 08:31:34;;;;;;;;;1.33;1.33;;;;;34.01;36.73;100847.44;5034911;28;45611;-75
2022/07/30 08:34:05;;;;;;;;;1.00;1.00;;;;;36.55;32.31;100797.41;5035772;28;45549;-77
2022/07/30 08:36:31;;;;;;;;;0.67;0.67;;;;;35.49;33.17;100839.53;5036724;28;45387;-76
2022/07/30 08:39:06;;;;;;;;;0.67;0.67;;;;;34.21;34.74;100859.75;5038229;28;46108;-76
2022/07/30 08:41:31;;;;;;;;;1.00;1.00;;;;;33.29;36.32;100860.88;5035800;28;46314;-75
2022/07/30 08:43:59;;;;;;;;;2.67;1.67;;;;;32.70;37.17;100854.44;5036468;28;45632;-75
2022/07/30 08:46:29;;;;;;;;;0.67;0.67;;;;;32.29;37.65;100852.22;5038293;28;45437;-75
2022/07/30 08:48:55;;;;;;;;;1.67;1.67;;;;;34.12;35.40;100849.44;5036102;28;45208;-76
2022/07/30 08:51:24;;;;;;;;;1.67;1.33;;;;;33.75;35.35;100837.38;5037674;28;45541;-76
2022/07/30 08:53:50;;;;;;;;;1.00;1.00;;;;;33.44;35.72;100850.94;5037419;28;45417;-76
2022/07/30 08:56:16;;;;;;;;;1.67;1.33;;;;;33.39;36.36;100857.63;5032925;28;45593;-76
2022/07/30 08:58:42;;;;;;;;;1.00;1.00;;;;;33.25;36.27;100859.31;5026995;28;45575;-75
2022/07/30 09:01:08;;;;;;;;;0.67;0.67;;;;;33.98;35.00;100858.50;5021935;28;45481;-75
2022/07/30 09:03:34;;;;;;;;;0.67;0.67;;;;;34.47;34.27;100851.75;5020104;28;45480;-74
2022/07/30 09:06:01;;;;;;;;;2.00;1.67;;;;;33.57;36.40;100867.31;5050736;28;45497;-75
2022/07/30 09:08:27;;;;;;;;;1.33;1.33;;;;;33.63;36.06;100864.28;5022924;28;46223;-74
2022/07/30 09:10:53;;;;;;;;;1.67;1.67;;;;;32.85;37.52;100855.38;5025500;28;46130;-75
2022/07/30 09:13:26;;;;;;;;;1.67;1.33;;;;;32.39;38.19;100837.25;5028828;28;45413;-75
2022/07/30 09:15:53;;;;;;;;;1.00;1.00;;;;;32.21;38.84;100849.97;5035404;28;45551;-74
2022/07/30 09:18:33;;;;;;;;;2.00;1.00;;;;;32.44;38.42;100869.41;5027960;28;45574;-74
2022/07/30 09:21:12;;;;;;;;;1.00;1.00;;;;;32.16;38.65;100880.91;5033198;28;46032;-75
2022/07/30 09:23:38;;;;;;;;;1.00;1.00;;;;;31.93;38.90;100861.34;5029562;28;45480;-74
2022/07/30 09:26:04;;;;;;;;;1.00;0.67;;;;;31.86;39.62;100866.22;5032267;28;45669;-74
2022/07/30 09:28:35;;;;;;;;;0.33;0.33;;;;;31.87;39.81;100859.88;5032406;28;45516;-74
2022/07/30 09:31:01;;;;;;;;;5.67;5.67;;;;;31.90;39.09;100848.91;5032787;28;45458;-75
2022/07/30 09:33:35;;;;;;;;;3.00;2.00;;;;;34.17;36.29;100858.22;5027353;28;45294;-74
2022/07/30 09:36:04;;;;;;;;;1.33;1.33;;;;;33.94;36.03;100864.19;5027820;28;45533;-74
2022/07/30 09:38:46;;;;;;;;;3.00;2.00;;;;;33.45;36.83;100860.81;5037020;28;45373;-76
2022/07/30 09:41:13;;;;;;;;;2.00;2.00;;;;;33.45;36.93;100870.78;5041622;28;45529;-75
2022/07/30 09:43:50;;;;;;;;;2.00;1.00;;;;;34.33;35.76;100876.22;5030573;28;45487;-75
2022/07/30 09:46:16;;;;;;;;;9.00;8.33;;;;;35.76;32.58;100840.31;5028635;28;45532;-76
2022/07/30 09:48:45;;;;;;;;;1.67;1.67;;;;;35.80;32.96;100862.72;5032812;28;45480;-75
2022/07/30 09:51:11;;;;;;;;;2.00;1.67;;;;;34.71;34.90;100862.88;5023313;28;45448;-74
2022/07/30 09:53:53;;;;;;;;;2.00;1.33;;;;;33.68;36.64;100861.25;5023315;28;45429;-75
2022/07/30 09:56:31;;;;;;;;;1.67;1.67;;;;;32.98;37.04;100867.22;5029496;28;45368;-74
2022/07/30 09:58:57;;;;;;;;;1.00;1.00;;;;;32.24;37.70;100874.09;5068270;28;45694;-74
2022/07/30 10:01:23;;;;;;;;;1.67;1.00;;;;;31.42;39.40;100847.84;5030165;28;45386;-74
2022/07/30 10:03:49;;;;;;;;;8.00;5.67;;;;;30.99;39.58;100789.84;5031702;28;45489;-74
2022/07/30 10:06:15;;;;;;;;;2.00;1.33;;;;;31.52;39.66;100857.22;5026698;28;45445;-75
2022/07/30 10:08:49;;;;;;;;;1.67;1.00;;;;;31.53;39.58;100841.91;5028653;28;45421;-74
2022/07/30 10:11:22;;;;;;;;;1.00;1.00;;;;;30.82;40.47;100778.06;5030234;28;46085;-74
2022/07/30 10:13:51;;;;;;;;;2.00;2.00;;;;;31.17;40.09;100801.50;5030924;28;45410;-73
2022/07/30 10:16:17;;;;;;;;;2.67;2.00;;;;;31.49;40.72;100807.91;5025240;28;45422;-74
2022/07/30 10:18:43;;;;;;;;;4.33;3.67;;;;;32.28;39.29;100854.03;5034248;28;45490;-73
2022/07/30 10:21:09;;;;;;;;;1.00;1.00;;;;;32.89;38.76;100846.97;5032725;28;46220;-75
2022/07/30 10:23:36;;;;;;;;;1.33;1.00;;;;;33.11;37.30;100825.91;5028502;28;45300;-73
2022/07/30 10:26:02;;;;;;;;;2.33;1.67;;;;;33.22;36.74;100854.06;5030462;28;45446;-75
2022/07/30 10:28:29;;;;;;;;;2.00;2.00;;;;;33.51;37.55;100851.44;5034351;28;45592;-75
2022/07/30 10:30:59;;;;;;;;;1.67;1.67;;;;;33.46;37.37;100849.00;5030604;28;45599;-75
2022/07/30 10:33:27;;;;;;;;;1.67;1.67;;;;;33.09;38.16;100847.69;5030964;28;45696;-75
2022/07/30 10:35:53;;;;;;;;;0.67;0.67;;;;;32.54;38.79;100824.66;5027848;28;45611;-75
2022/07/30 10:38:33;;;;;;;;;1.67;1.33;;;;;32.41;39.16;100851.53;5028696;28;45457;-75
2022/07/30 10:41:16;;;;;;;;;3.00;2.67;;;;;32.20;39.04;100848.19;5031300;28;45403;-76
2022/07/30 10:43:55;;;;;;;;;2.00;2.00;;;;;32.08;39.31;100843.47;5028981;28;45534;-75
2022/07/30 10:46:26;;;;;;;;;3.00;2.00;;;;;32.00;39.43;100846.59;5028394;28;45477;-75
2022/07/30 10:48:54;;;;;;;;;9.67;9.67;;;;;31.94;39.55;100837.94;5030533;28;45529;-75
2022/07/30 10:51:21;;;;;;;;;4.67;4.67;;;;;31.89;39.66;100825.56;5030823;28;46556;-75
2022/07/30 10:53:47;;;;;;;;;1.67;1.67;;;;;31.72;39.99;100836.41;5029297;28;45575;-76
2022/07/30 10:56:22;;;;;;;;;4.00;3.67;;;;;31.57;40.33;100832.69;5027504;28;45542;-75
2022/07/30 10:59:06;;;;;;;;;5.00;3.00;;;;;31.49;40.55;100829.50;5030036;28;45630;-75
2022/07/30 11:01:47;;;;;;;;;2.00;2.00;;;;;31.96;40.77;100839.59;5029005;28;45817;-75
2022/07/30 11:04:24;;;;;;;;;2.00;2.00;;;;;32.11;40.51;100821.69;5030569;28;45568;-75
2022/07/30 11:06:51;;;;;;;;;2.00;2.00;;;;;32.10;40.16;100812.69;5030726;28;45505;-75
2022/07/30 11:09:43;;;;;;;;;3.00;2.67;;;;;32.41;38.98;100827.22;5027097;28;45417;-75
2022/07/30 11:12:10;;;;;;;;;2.67;2.00;;;;;32.64;39.11;100800.69;5026504;28;46167;-75
2022/07/30 11:14:55;;;;;;;;;2.00;2.00;;;;;32.83;38.78;100825.72;5021843;28;45511;-74
2022/07/30 11:17:21;;;;;;;;;0.67;0.67;;;;;32.77;38.44;100803.53;5026215;28;45461;-75
2022/07/30 11:20:02;;;;;;;;;2.67;2.67;;;;;32.84;38.29;100826.56;5027818;28;45492;-76
2022/07/30 11:22:34;;;;;;;;;2.33;2.33;;;;;33.00;37.66;100827.41;5032657;28;45430;-76
2022/07/30 11:25:00;;;;;;;;;2.00;2.00;;;;;33.06;38.12;100821.59;5023730;28;46914;-76
2022/07/30 11:27:46;;;;;;;;;1.67;1.67;;;;;32.53;38.51;100800.41;5032197;28;45496;-75
2022/07/30 11:30:14;;;;;;;;;1.67;1.67;;;;;32.37;39.51;100816.63;5026505;28;45330;-75